createdAt,value
2022-08-11T00:02:18.245Z,1.80
2022-08-11T00:04:54.987Z,1.90
2022-08-11T00:07:45.850Z,2.10
2022-08-11T00:10:24.954Z,1.65
2022-08-11T00:13:07.896Z,2.38
2022-08-11T00:15:57.847Z,2.30
2022-08-11T00:18:51.495Z,2.45
2022-08-11T00:22:02.901Z,2.50
2022-08-11T00:24:25.917Z,2.17
2022-08-11T00:27:00.870Z,2.15
2022-08-11T00:29:51.608Z,2.10
2022-08-11T00:32:37.664Z,1.90
2022-08-11T00:35:52.469Z,2.40
2022-08-11T00:38:33.324Z,1.90
2022-08-11T00:41:10.342Z,2.03
2022-08-11T00:44:21.684Z,2.30
2022-08-11T00:47:35.675Z,2.40
2022-08-11T00:50:19.837Z,2.30
2022-08-11T00:53:19.372Z,2.10
2022-08-11T00:56:18.616Z,2.40
2022-08-11T00:59:35.371Z,1.80
2022-08-11T01:02:30.711Z,2.15
2022-08-11T01:05:40.954Z,2.22
2022-08-11T01:09:03.487Z,1.75
2022-08-11T01:12:17.926Z,1.80
2022-08-11T01:15:22.159Z,2.15
2022-08-11T01:18:20.040Z,2.35
2022-08-11T01:21:23.691Z,2.20
2022-08-11T01:24:30.361Z,2.35
2022-08-11T01:27:28.585Z,2.38
2022-08-11T01:30:40.660Z,2.63
2022-08-11T01:33:46.493Z,2.80
2022-08-11T01:36:57.319Z,2.35
2022-08-11T01:39:49.656Z,2.28
2022-08-11T01:43:14.849Z,2.40
2022-08-11T01:45:58.820Z,2.25
2022-08-11T01:50:06.424Z,2.10
2022-08-11T01:52:33.642Z,2.60
2022-08-11T01:58:39.482Z,2.58
2022-08-11T02:01:40.884Z,2.28
2022-08-11T02:04:19.859Z,2.72
2022-08-11T02:07:15.453Z,2.33
2022-08-11T02:09:58.017Z,2.60
2022-08-11T02:13:02.945Z,2.50
2022-08-11T02:16:06.488Z,2.85
2022-08-11T02:19:14.523Z,2.15
2022-08-11T02:22:21.324Z,2.85
2022-08-11T02:25:20.434Z,2.50
2022-08-11T02:28:23.966Z,2.42
2022-08-11T02:32:23.930Z,2.22
2022-08-11T02:35:09.161Z,3.05
2022-08-11T02:38:06.425Z,3.42
2022-08-11T02:41:01.604Z,3.47
2022-08-11T02:44:05.763Z,3.47
2022-08-11T02:47:17.093Z,3.40
2022-08-11T02:50:32.837Z,3.63
2022-08-11T02:53:12.870Z,3.30
2022-08-11T02:56:00.846Z,3.08
2022-08-11T02:59:16.245Z,3.00
2022-08-11T03:02:04.585Z,3.28
2022-08-11T03:04:52.925Z,2.65
2022-08-11T03:08:22.379Z,2.75
2022-08-11T03:11:28.206Z,2.28
2022-08-11T03:14:35.407Z,2.50
2022-08-11T03:17:40.113Z,3.42
2022-08-11T03:20:24.954Z,2.83
2022-08-11T03:23:40.876Z,3.23
2022-08-11T03:26:42.738Z,3.65
2022-08-11T03:29:33.946Z,3.03
2022-08-11T03:32:31.563Z,3.65
2022-08-11T03:35:08.808Z,4.60
2022-08-11T03:38:14.440Z,5.30
2022-08-11T03:42:01.418Z,4.40
2022-08-11T03:45:15.086Z,4.65
2022-08-11T03:48:14.013Z,5.22
2022-08-11T03:51:44.819Z,6.57
2022-08-11T03:55:08.583Z,6.30
2022-08-11T03:58:07.596Z,4.72
2022-08-11T04:00:55.987Z,3.38
2022-08-11T04:04:00.733Z,3.13
2022-08-11T04:07:10.859Z,3.00
2022-08-11T04:10:22.994Z,3.45
2022-08-11T04:13:44.860Z,3.13
2022-08-11T04:16:28.790Z,2.53
2022-08-11T04:19:29.634Z,3.28
2022-08-11T04:22:27.549Z,3.03
2022-08-11T04:25:28.742Z,3.10
2022-08-11T04:28:29.147Z,3.85
2022-08-11T04:31:50.634Z,5.00
2022-08-11T04:34:55.893Z,7.65
2022-08-11T04:38:09.018Z,6.63
2022-08-11T04:41:01.479Z,5.43
2022-08-11T04:44:25.019Z,4.15
2022-08-11T04:48:04.451Z,5.05
2022-08-11T04:51:39.454Z,4.80
2022-08-11T04:54:58.454Z,5.20
2022-08-11T04:58:10.160Z,6.28
2022-08-11T05:01:37.268Z,5.90
2022-08-11T05:04:41.133Z,5.25
2022-08-11T05:07:49.454Z,5.43
2022-08-11T05:10:52.976Z,4.50
2022-08-11T05:14:10.651Z,3.38
2022-08-11T05:17:12.375Z,2.72
2022-08-11T05:20:08.418Z,2.55
2022-08-11T05:23:06.385Z,2.47
2022-08-11T05:26:43.778Z,2.40
2022-08-11T05:29:21.801Z,2.22
2022-08-11T05:32:35.690Z,2.50
2022-08-11T05:35:08.874Z,3.00
2022-08-11T05:38:16.651Z,2.30
2022-08-11T05:41:13.256Z,2.30
2022-08-11T05:44:20.216Z,2.45
2022-08-11T05:47:16.679Z,1.88
2022-08-11T05:50:15.301Z,1.67
2022-08-11T05:53:09.307Z,1.85
2022-08-11T05:56:08.040Z,2.50
2022-08-11T05:58:44.774Z,2.22
2022-08-11T06:01:34.276Z,2.20
2022-08-11T06:04:19.871Z,2.28
2022-08-11T06:07:10.568Z,2.38
2022-08-11T06:09:56.075Z,2.00
2022-08-11T06:12:43.573Z,1.70
2022-08-11T06:15:27.590Z,1.77
2022-08-11T06:18:08.760Z,2.35
2022-08-11T06:21:00.538Z,1.90
2022-08-11T06:23:43.869Z,1.75
2022-08-11T06:26:22.717Z,2.13
2022-08-11T06:29:11.134Z,1.52
2022-08-11T06:31:47.632Z,1.70
2022-08-11T06:34:27.665Z,1.83
2022-08-11T06:37:24.429Z,2.13
2022-08-11T06:40:27.406Z,2.08
2022-08-11T06:43:27.439Z,1.60
2022-08-11T06:46:12.898Z,1.50
2022-08-11T06:49:06.882Z,1.70
2022-08-11T06:52:04.406Z,1.65
2022-08-11T06:54:49.370Z,1.73
2022-08-11T06:57:56.641Z,1.90
2022-08-11T07:00:37.316Z,1.40
2022-08-11T07:03:15.820Z,1.40
2022-08-11T07:06:09.401Z,1.70
2022-08-11T07:09:35.697Z,1.58
2022-08-11T07:12:38.768Z,1.60
2022-08-11T07:16:10.892Z,1.30
2022-08-11T07:19:02.922Z,1.50
2022-08-11T07:22:03.741Z,1.40
2022-08-11T07:25:26.537Z,1.50
2022-08-11T07:28:30.288Z,1.50
2022-08-11T07:31:42.807Z,1.50
2022-08-11T07:34:34.522Z,1.35
2022-08-11T07:37:17.992Z,0.90
2022-08-11T07:39:54.168Z,0.90
2022-08-11T07:42:41.621Z,1.38
2022-08-11T07:45:34.357Z,0.75
2022-08-11T07:48:33.503Z,1.13
2022-08-11T07:51:25.450Z,0.88
2022-08-11T07:54:17.087Z,0.82
2022-08-11T07:56:55.116Z,1.02
2022-08-11T08:00:10.500Z,1.00
2022-08-11T08:03:08.804Z,1.35
2022-08-11T08:06:00.147Z,1.02
2022-08-11T08:08:55.800Z,1.33
2022-08-11T08:11:46.821Z,1.33
2022-08-11T08:14:42.867Z,1.25
2022-08-11T08:17:37.492Z,1.30
2022-08-11T08:20:10.273Z,1.10
2022-08-11T08:22:57.143Z,1.10
2022-08-11T08:25:39.017Z,1.30
2022-08-11T08:28:21.882Z,1.00
2022-08-11T08:30:52.957Z,1.02
2022-08-11T08:33:40.891Z,1.15
2022-08-11T08:36:18.692Z,1.20
2022-08-11T08:39:00.781Z,1.15
2022-08-11T08:41:50.908Z,1.00
2022-08-11T08:44:38.358Z,0.95
2022-08-11T08:47:42.913Z,1.02
2022-08-11T08:50:47.581Z,0.65
2022-08-11T08:53:52.497Z,0.90
2022-08-11T08:56:38.659Z,1.07
2022-08-11T08:59:16.489Z,1.10
2022-08-11T09:02:13.082Z,0.88
2022-08-11T09:04:52.333Z,1.20
2022-08-11T09:07:26.594Z,0.95
2022-08-11T09:10:08.251Z,1.00
2022-08-11T09:12:44.076Z,1.27
2022-08-11T09:15:27.303Z,0.98
2022-08-11T09:18:09.377Z,0.90
2022-08-11T09:20:47.017Z,1.02
2022-08-11T09:24:06.800Z,1.20
2022-08-11T09:27:03.033Z,1.10
2022-08-11T09:29:39.100Z,1.23
2022-08-11T09:32:15.461Z,1.15
2022-08-11T09:34:45.888Z,0.85
2022-08-11T09:37:55.542Z,0.75
2022-08-11T09:40:41.935Z,1.10
